Observation data for Roaring Springs on 11/19/2019      Previous  Date       Current Mesonet Observations  Soil Data  Daily Summary Page  Observations in Plain Language
KRRS 190600Z 26010KT 10/02 A2996 RMK A01 T01000023  RH  060%=      5-min Rain = 0
KRRS 190605Z 27008KT 10/02 A2996 RMK A01 T01020023  RH  059%=      5-min Rain = 0
KRRS 190610Z 27008KT 10/02 A2996 RMK A01 T01020023  RH  059%=      5-min Rain = 0
KRRS 190615Z 27009KT 10/02 A2996 RMK A01 T00990023  RH  060%=      5-min Rain = 0
KRRS 190620Z 27010KT 10/02 A2996 RMK A01 T00990024  RH  060%=      5-min Rain = 0
KRRS 190625Z 27010KT 10/02 A2996 RMK A01 T01010024  RH  060%=      5-min Rain = 0
KRRS 190630Z 27009KT 10/03 A2996 RMK A01 T01030025  RH  059%=      5-min Rain = 0
KRRS 190635Z 27008KT 10/03 A2996 RMK A01 T01040025  RH  059%=      5-min Rain = 0
KRRS 190640Z 27007KT 10/03 A2996 RMK A01 T01010025  RH  060%=      5-min Rain = 0
KRRS 190645Z 27008KT 10/03 A2996 RMK A01 T01000025  RH  061%=      5-min Rain = 0
KRRS 190650Z 27008KT 10/03 A2996 RMK A01 T00990025  RH  061%=      5-min Rain = 0
KRRS 190655Z 27008KT 10/03 A2996 RMK A01 T00990026  RH  061%=      5-min Rain = 0
KRRS 190700Z 27008KT 10/03 A2996 RMK A01 T01000026  RH  061%=      5-min Rain = 0
KRRS 190705Z 28009KT 10/03 A2996 RMK A01 T01010026  RH  061%=      5-min Rain = 0
KRRS 190710Z 28009KT 10/03 A2996 RMK A01 T01020027  RH  060%=      5-min Rain = 0
KRRS 190715Z 28009KT 10/03 A2996 RMK A01 T01040027  RH  060%=      5-min Rain = 0
KRRS 190720Z 28009KT 11/03 A2996 RMK A01 T01050027  RH  059%=      5-min Rain = 0
KRRS 190725Z 28010KT 11/03 A2996 RMK A01 T01060027  RH  059%=      5-min Rain = 0
KRRS 190730Z 28009KT 11/03 A2996 RMK A01 T01060026  RH  059%=      5-min Rain = 0
KRRS 190735Z 27009KT 11/03 A2995 RMK A01 T01060026  RH  059%=      5-min Rain = 0
KRRS 190740Z 27009KT 11/03 A2995 RMK A01 T01060026  RH  058%=      5-min Rain = 0
KRRS 190745Z 28009KT 11/03 A2995 RMK A01 T01060026  RH  058%=      5-min Rain = 0
KRRS 190750Z 28009KT 11/03 A2995 RMK A01 T01060026  RH  059%=      5-min Rain = 0
KRRS 190755Z 27010KT 11/03 A2995 RMK A01 T01050025  RH  059%=      5-min Rain = 0
KRRS 190800Z 28009KT 11/03 A2995 RMK A01 T01050025  RH  059%=      5-min Rain = 0
KRRS 190805Z 28009KT 10/03 A2995 RMK A01 T01040025  RH  059%=      5-min Rain = 0
KRRS 190810Z 27009KT 10/03 A2995 RMK A01 T01040025  RH  059%=      5-min Rain = 0
KRRS 190815Z 27009KT 10/03 A2996 RMK A01 T01030025  RH  059%=      5-min Rain = 0
KRRS 190820Z 27010KT 10/02 A2996 RMK A01 T00990024  RH  061%=      5-min Rain = 0
KRRS 190825Z 27010KT 10/02 A2996 RMK A01 T00970024  RH  061%=      5-min Rain = 0
KRRS 190830Z 27010KT 10/02 A2996 RMK A01 T00960023  RH  061%=      5-min Rain = 0
KRRS 190835Z 27009KT 10/02 A2996 RMK A01 T00970023  RH  061%=      5-min Rain = 0
KRRS 190840Z 27010KT 10/02 A2995 RMK A01 T00970022  RH  061%=      5-min Rain = 0
KRRS 190845Z 27010KT 10/02 A2995 RMK A01 T00970022  RH  061%=      5-min Rain = 0
KRRS 190850Z 27009KT 10/02 A2995 RMK A01 T00980022  RH  060%=      5-min Rain = 0
KRRS 190855Z 27009KT 10/02 A2995 RMK A01 T00960022  RH  061%=      5-min Rain = 0
KRRS 190900Z 25007KT 09/02 A2996 RMK A01 T00920022  RH  062%=      5-min Rain = 0
KRRS 190905Z 26007KT 09/02 A2995 RMK A01 T00900021  RH  063%=      5-min Rain = 0
KRRS 190910Z 26007KT 09/02 A2996 RMK A01 T00850021  RH  065%=      5-min Rain = 0
KRRS 190915Z 27008KT 09/02 A2996 RMK A01 T00850021  RH  065%=      5-min Rain = 0
KRRS 190920Z 27009KT 09/02 A2996 RMK A01 T00890022  RH  064%=      5-min Rain = 0
KRRS 190925Z 27009KT 09/02 A2996 RMK A01 T00910022  RH  063%=      5-min Rain = 0
KRRS 190930Z 27010KT 09/02 A2996 RMK A01 T00940023  RH  062%=      5-min Rain = 0
KRRS 190935Z 27009KT 10/02 A2996 RMK A01 T00950023  RH  062%=      5-min Rain = 0
KRRS 190940Z 27009KT 09/02 A2996 RMK A01 T00940023  RH  062%=      5-min Rain = 0
KRRS 190945Z 27010KT 09/02 A2996 RMK A01 T00910023  RH  063%=      5-min Rain = 0
KRRS 190950Z 28010KT 09/02 A2996 RMK A01 T00910023  RH  063%=      5-min Rain = 0
KRRS 190955Z 28010KT 09/02 A2996 RMK A01 T00910023  RH  064%=      5-min Rain = 0
KRRS 191000Z 28010KT 09/02 A2996 RMK A01 T00920023  RH  063%=      5-min Rain = 0
KRRS 191005Z 27010KT 09/02 A2996 RMK A01 T00940023  RH  062%=      5-min Rain = 0
KRRS 191010Z 27010KT 09/02 A2996 RMK A01 T00940023  RH  062%=      5-min Rain = 0
KRRS 191015Z 28010KT 09/02 A2996 RMK A01 T00940023  RH  062%=      5-min Rain = 0
KRRS 191020Z 28011KT 09/02 A2996 RMK A01 T00930023  RH  063%=      5-min Rain = 0
KRRS 191025Z 28010KT 09/02 A2996 RMK A01 T00920023  RH  063%=      5-min Rain = 0
KRRS 191030Z 28010KT 09/02 A2996 RMK A01 T00910023  RH  064%=      5-min Rain = 0
KRRS 191035Z 28010KT 09/02 A2996 RMK A01 T00920024  RH  063%=      5-min Rain = 0
KRRS 191040Z 28010KT 09/02 A2996 RMK A01 T00940024  RH  063%=      5-min Rain = 0
KRRS 191045Z 28009KT 09/02 A2996 RMK A01 T00930024  RH  063%=      5-min Rain = 0
KRRS 191050Z 28010KT 09/02 A2996 RMK A01 T00920024  RH  063%=      5-min Rain = 0
KRRS 191055Z 28009KT 09/02 A2996 RMK A01 T00930024  RH  063%=      5-min Rain = 0
KRRS 191100Z 28010KT 09/02 A2996 RMK A01 T00940024  RH  063%=      5-min Rain = 0
KRRS 191105Z 28010KT 09/02 A2996 RMK A01 T00940024  RH  063%=      5-min Rain = 0
KRRS 191110Z 28010KT 09/02 A2996 RMK A01 T00920024  RH  063%=      5-min Rain = 0
KRRS 191115Z 28010KT 09/02 A2996 RMK A01 T00890023  RH  064%=      5-min Rain = 0
KRRS 191120Z 28010KT 09/02 A2996 RMK A01 T00870023  RH  065%=      5-min Rain = 0
KRRS 191125Z 28010KT 09/02 A2996 RMK A01 T00870023  RH  065%=      5-min Rain = 0
KRRS 191130Z 28010KT 09/02 A2996 RMK A01 T00880022  RH  064%=      5-min Rain = 0
KRRS 191135Z 28010KT 09/02 A2996 RMK A01 T00910022  RH  063%=      5-min Rain = 0
KRRS 191140Z 28009KT 09/02 A2996 RMK A01 T00920022  RH  062%=      5-min Rain = 0
KRRS 191145Z 28008KT 09/02 A2995 RMK A01 T00900022  RH  063%=      5-min Rain = 0
KRRS 191150Z 28008KT 09/02 A2995 RMK A01 T00870021  RH  065%=      5-min Rain = 0
KRRS 191155Z 28008KT 08/02 A2995 RMK A01 T00830021  RH  066%=      5-min Rain = 0
KRRS 191200Z 28006KT 08/02 A2995 RMK A01 T00820020  RH  066%=      5-min Rain = 0
KRRS 191205Z 31001KT 08/02 A2995 RMK A01 T00820020  RH  066%=      5-min Rain = 0
KRRS 191210Z 33001KT 08/02 A2995 RMK A01 T00840019  RH  065%=      5-min Rain = 0
KRRS 191215Z 35002KT 09/02 A2995 RMK A01 T00860019  RH  064%=      5-min Rain = 0
KRRS 191220Z 35002KT 09/02 A2995 RMK A01 T00890019  RH  062%=      5-min Rain = 0
KRRS 191225Z 36001KT 09/02 A2995 RMK A01 T00900019  RH  062%=      5-min Rain = 0
KRRS 191230Z 01000KT 09/02 A2995 RMK A01 T00890019  RH  062%=      5-min Rain = 0
KRRS 191235Z 28000KT 09/02 A2995 RMK A01 T00860018  RH  063%=      5-min Rain = 0
KRRS 191240Z 28002KT 09/02 A2995 RMK A01 T00860019  RH  064%=      5-min Rain = 0
KRRS 191245Z 28003KT 09/02 A2995 RMK A01 T00870019  RH  063%=      5-min Rain = 0
KRRS 191250Z 26004KT 09/02 A2995 RMK A01 T00890019  RH  063%=      5-min Rain = 0
KRRS 191255Z 26005KT 09/02 A2995 RMK A01 T00870019  RH  063%=      5-min Rain = 0
KRRS 191300Z 25004KT 08/02 A2995 RMK A01 T00810018  RH  065%=      5-min Rain = 0
KRRS 191305Z 24003KT 08/02 A2995 RMK A01 T00760017  RH  067%=      5-min Rain = 0
KRRS 191310Z 24003KT 07/02 A2995 RMK A01 T00730017  RH  069%=      5-min Rain = 0
KRRS 191315Z 25003KT 07/02 A2994 RMK A01 T00690016  RH  070%=      5-min Rain = 0
KRRS 191320Z 25004KT 06/01 A2994 RMK A01 T00600013  RH  073%=      5-min Rain = 0
KRRS 191325Z 25005KT 06/01 A2994 RMK A01 T00570014  RH  075%=      5-min Rain = 0
KRRS 191330Z 24006KT 06/01 A2994 RMK A01 T00590014  RH  074%=      5-min Rain = 0
KRRS 191335Z 24009KT 06/01 A2994 RMK A01 T00550013  RH  076%=      5-min Rain = 0
KRRS 191340Z 24009KT 05/02 A2995 RMK A01 T00540016  RH  078%=      5-min Rain = 0
KRRS 191345Z 23008KT 05/02 A2995 RMK A01 T00540017  RH  078%=      5-min Rain = 0
KRRS 191350Z 22008KT 06/02 A2995 RMK A01 T00560019  RH  078%=      5-min Rain = 0
KRRS 191355Z 22007KT 06/02 A2995 RMK A01 T00600021  RH  077%=      5-min Rain = 0
KRRS 191400Z 21007KT 07/02 A2995 RMK A01 T00680023  RH  074%=      5-min Rain = 0
KRRS 191405Z 23007KT 08/03 A2995 RMK A01 T00780026  RH  071%=      5-min Rain = 0
KRRS 191410Z 24007KT 09/03 A2995 RMK A01 T00910030  RH  067%=      5-min Rain = 0
KRRS 191415Z 23006KT 10/03 A2995 RMK A01 T01030033  RH  063%=      5-min Rain = 0
KRRS 191420Z 24005KT 11/04 A2995 RMK A01 T01110035  RH  061%=      5-min Rain = 0
KRRS 191425Z 23005KT 12/04 A2995 RMK A01 T01190036  RH  058%=      5-min Rain = 0
KRRS 191430Z 24005KT 13/04 A2995 RMK A01 T01280038  RH  055%=      5-min Rain = 0
KRRS 191435Z 23005KT 13/04 A2995 RMK A01 T01320039  RH  054%=      5-min Rain = 0
KRRS 191440Z 22005KT 14/04 A2995 RMK A01 T01360040  RH  053%=      5-min Rain = 0
KRRS 191445Z 21006KT 14/04 A2995 RMK A01 T01440040  RH  051%=      5-min Rain = 0
KRRS 191450Z 21006KT 15/04 A2995 RMK A01 T01490040  RH  049%=      5-min Rain = 0
KRRS 191455Z 21006KT 16/04 A2995 RMK A01 T01560039  RH  047%=      5-min Rain = 0
KRRS 191500Z 20007KT 16/04 A2995 RMK A01 T01610040  RH  045%=      5-min Rain = 0
KRRS 191505Z 20007KT 16/04 A2995 RMK A01 T01640039  RH  044%=      5-min Rain = 0
KRRS 191510Z 20006KT 17/04 A2995 RMK A01 T01660038  RH  043%=      5-min Rain = 0
KRRS 191515Z 20005KT 17/04 A2995 RMK A01 T01710039  RH  042%=      5-min Rain = 0
KRRS 191520Z 19005KT 18/04 A2995 RMK A01 T01750039  RH  041%=      5-min Rain = 0
KRRS 191525Z 18006KT 18/04 A2995 RMK A01 T01770039  RH  041%=      5-min Rain = 0
KRRS 191530Z 17005KT 18/04 A2995 RMK A01 T01840036  RH  038%=      5-min Rain = 0
KRRS 191535Z 16006KT 19/03 A2995 RMK A01 T01890034  RH  036%=      5-min Rain = 0
KRRS 191540Z 16008KT 19/03 A2995 RMK A01 T01920033  RH  035%=      5-min Rain = 0
KRRS 191545Z 17008KT 19/04 A2995 RMK A01 T01920036  RH  036%=      5-min Rain = 0
KRRS 191550Z 17008KT 19/04 A2995 RMK A01 T01940039  RH  037%=      5-min Rain = 0
KRRS 191555Z 16008KT 20/05 A2995 RMK A01 T01970045  RH  037%=      5-min Rain = 0
KRRS 191600Z 16009KT 20/04 A2995 RMK A01 T01950044  RH  038%=      5-min Rain = 0
KRRS 191605Z 16009KT 19/05 A2995 RMK A01 T01920046  RH  039%=      5-min Rain = 0
KRRS 191610Z 15009KT 19/05 A2995 RMK A01 T01900049  RH  040%=      5-min Rain = 0
KRRS 191615Z 15010KT 19/05 A2995 RMK A01 T01940047  RH  039%=      5-min Rain = 0
KRRS 191620Z 15011KT 20/05 A2995 RMK A01 T01960045  RH  038%=      5-min Rain = 0
KRRS 191625Z 15009KT 20/04 A2995 RMK A01 T02000044  RH  036%=      5-min Rain = 0
KRRS 191630Z 16010KT 20/04 A2995 RMK A01 T02010035  RH  034%=      5-min Rain = 0
KRRS 191635Z 16009KT 21/04 A2995 RMK A01 T02050036  RH  033%=      5-min Rain = 0
KRRS 191640Z 18012KT 21/03 A2995 RMK A01 T02100034  RH  032%=      5-min Rain = 0
KRRS 191645Z 17012KT 21/03 A2995 RMK A01 T02090031  RH  031%=      5-min Rain = 0
KRRS 191650Z 17010KT 21/03 A2994 RMK A01 T02110033  RH  031%=      5-min Rain = 0
KRRS 191655Z 17011KT 21/03 A2994 RMK A01 T02120033  RH  031%=      5-min Rain = 0
KRRS 191700Z 17012KT 22/03 A2994 RMK A01 T02150031  RH  030%=      5-min Rain = 0
KRRS 191705Z 17012KT 22/03 A2994 RMK A01 T02150028  RH  030%=      5-min Rain = 0
KRRS 191710Z 16011KT 22/03 A2994 RMK A01 T02150027  RH  030%=      5-min Rain = 0
KRRS 191715Z 17011KT 22/03 A2994 RMK A01 T02170028  RH  029%=      5-min Rain = 0
KRRS 191720Z 17012KT 22/03 A2993 RMK A01 T02170028  RH  029%=      5-min Rain = 0
KRRS 191725Z 17010G15KT 22/03 A2993 RMK A01 T02220031  RH  029%=      5-min Rain = 0
KRRS 191730Z 18011KT 23/03 A2993 RMK A01 T02250032  RH  029%=      5-min Rain = 0
KRRS 191735Z 18011G16KT 22/03 A2993 RMK A01 T02240032  RH  029%=      5-min Rain = 0
KRRS 191740Z 18014KT 22/03 A2993 RMK A01 T02210030  RH  029%=      5-min Rain = 0
KRRS 191745Z 18011KT 22/03 A2992 RMK A01 T02170032  RH  030%=      5-min Rain = 0
KRRS 191750Z 18012G18KT 22/03 A2992 RMK A01 T02220034  RH  030%=      5-min Rain = 0
KRRS 191755Z 18013KT 22/03 A2992 RMK A01 T02210034  RH  030%=      5-min Rain = 0
KRRS 191800Z 17014KT 23/03 A2991 RMK A01 T02300034  RH  028%=      5-min Rain = 0
KRRS 191805Z 18016KT 23/03 A2991 RMK A01 T02290029  RH  027%=      5-min Rain = 0
KRRS 191810Z 18016G22KT 23/03 A2991 RMK A01 T02330030  RH  027%=      5-min Rain = 0
KRRS 191815Z 19016G21KT 23/03 A299 RMK A01 T02310030  RH  027%=      5-min Rain = 0
KRRS 191820Z 18014KT 24/03 A299 RMK A01 T02350034  RH  027%=      5-min Rain = 0
KRRS 191825Z 18015KT 24/03 A299 RMK A01 T02370033  RH  027%=      5-min Rain = 0
KRRS 191830Z 18014G19KT 24/03 A2989 RMK A01 T02420033  RH  026%=      5-min Rain = 0
KRRS 191835Z 18016KT 24/03 A2989 RMK A01 T02400032  RH  026%=      5-min Rain = 0
KRRS 191840Z 18015G20KT 24/03 A2989 RMK A01 T02390034  RH  027%=      5-min Rain = 0
KRRS 191845Z 18017G22KT 24/03 A2989 RMK A01 T02370033  RH  027%=      5-min Rain = 0
KRRS 191850Z 18016G22KT 24/03 A2988 RMK A01 T02390032  RH  026%=      5-min Rain = 0
KRRS 191855Z 18017G24KT 24/03 A2988 RMK A01 T02380031  RH  026%=      5-min Rain = 0
KRRS 191900Z 19020G26KT 23/03 A2988 RMK A01 T02340026  RH  026%=      5-min Rain = 0
KRRS 191905Z 19018G23KT 23/03 A2988 RMK A01 T02320029  RH  027%=      5-min Rain = 0
KRRS 191910Z 18015G20KT 24/03 A2987 RMK A01 T02360032  RH  027%=      5-min Rain = 0
KRRS 191915Z 17015G20KT 24/03 A2987 RMK A01 T02420030  RH  026%=      5-min Rain = 0
KRRS 191920Z 17017KT 24/03 A2987 RMK A01 T02430028  RH  025%=      5-min Rain = 0
KRRS 191925Z 17019KT 24/03 A2987 RMK A01 T02430028  RH  025%=      5-min Rain = 0
KRRS 191930Z 18018G24KT 24/03 A2986 RMK A01 T02430030  RH  025%=      5-min Rain = 0
KRRS 191935Z 19018G24KT 24/03 A2986 RMK A01 T02430033  RH  026%=      5-min Rain = 0
KRRS 191940Z 18018G24KT 25/04 A2986 RMK A01 T02450035  RH  026%=      5-min Rain = 0
KRRS 191945Z 18018KT 24/04 A2986 RMK A01 T02430037  RH  027%=      5-min Rain = 0
KRRS 191950Z 18018G24KT 24/04 A2985 RMK A01 T02440040  RH  027%=      5-min Rain = 0
KRRS 191955Z 18019G24KT 24/04 A2985 RMK A01 T02430039  RH  027%=      5-min Rain = 0
KRRS 192000Z 18018G24KT 24/04 A2985 RMK A01 T02440039  RH  027%=      5-min Rain = 0
KRRS 192005Z 18017G24KT 24/04 A2985 RMK A01 T02440040  RH  027%=      5-min Rain = 0
KRRS 192010Z 19018G24KT 25/04 A2984 RMK A01 T02460039  RH  027%=      5-min Rain = 0
KRRS 192015Z 18017G23KT 24/04 A2984 RMK A01 T02440040  RH  027%=      5-min Rain = 0
KRRS 192020Z 18017G22KT 25/04 A2984 RMK A01 T02450042  RH  027%=      5-min Rain = 0
KRRS 192025Z 18017G24KT 25/04 A2984 RMK A01 T02450041  RH  027%=      5-min Rain = 0
KRRS 192030Z 18017G23KT 25/04 A2984 RMK A01 T02450042  RH  027%=      5-min Rain = 0
KRRS 192035Z 18017G24KT 24/04 A2983 RMK A01 T02440041  RH  027%=      5-min Rain = 0
KRRS 192040Z 19017G23KT 25/04 A2983 RMK A01 T02470041  RH  027%=      5-min Rain = 0
KRRS 192045Z 19017G25KT 25/04 A2983 RMK A01 T02450040  RH  027%=      5-min Rain = 0
KRRS 192050Z 18017G24KT 25/04 A2983 RMK A01 T02480039  RH  026%=      5-min Rain = 0
KRRS 192055Z 18016G21KT 25/04 A2983 RMK A01 T02480038  RH  026%=      5-min Rain = 0
KRRS 192100Z 18016KT 25/04 A2982 RMK A01 T02490039  RH  026%=      5-min Rain = 0
KRRS 192105Z 19015G21KT 25/04 A2982 RMK A01 T02490038  RH  026%=      5-min Rain = 0
KRRS 192110Z 18016G21KT 25/04 A2982 RMK A01 T02490038  RH  026%=      5-min Rain = 0
KRRS 192115Z 18016G22KT 25/04 A2982 RMK A01 T02480039  RH  026%=      5-min Rain = 0
KRRS 192120Z 18016KT 25/04 A2982 RMK A01 T02470039  RH  027%=      5-min Rain = 0
KRRS 192125Z 17017G24KT 25/04 A2982 RMK A01 T02460039  RH  027%=      5-min Rain = 0
KRRS 192130Z 18018KT 25/04 A2981 RMK A01 T02450038  RH  027%=      5-min Rain = 0
KRRS 192135Z 18016G21KT 25/04 A2981 RMK A01 T02450039  RH  027%=      5-min Rain = 0
KRRS 192140Z 18017KT 25/04 A2981 RMK A01 T02460038  RH  026%=      5-min Rain = 0
KRRS 192145Z 18018G23KT 24/04 A2981 RMK A01 T02440036  RH  026%=      5-min Rain = 0
KRRS 192150Z 18017KT 24/04 A2981 RMK A01 T02430037  RH  027%=      5-min Rain = 0
KRRS 192155Z 18016KT 24/04 A2981 RMK A01 T02430038  RH  027%=      5-min Rain = 0
KRRS 192200Z 17014G22KT 24/04 A2981 RMK A01 T02430040  RH  027%=      5-min Rain = 0
KRRS 192205Z 18015KT 24/04 A2981 RMK A01 T02420042  RH  028%=      5-min Rain = 0
KRRS 192210Z 18016G23KT 24/04 A2981 RMK A01 T02410043  RH  028%=      5-min Rain = 0
KRRS 192215Z 17014G21KT 24/05 A2981 RMK A01 T02400045  RH  029%=      5-min Rain = 0
KRRS 192220Z 17014G19KT 24/05 A2981 RMK A01 T02410046  RH  029%=      5-min Rain = 0
KRRS 192225Z 18015G20KT 24/05 A2981 RMK A01 T02400048  RH  029%=      5-min Rain = 0
KRRS 192230Z 17014G19KT 24/05 A2981 RMK A01 T02380049  RH  030%=      5-min Rain = 0
KRRS 192235Z 17015G21KT 24/05 A2981 RMK A01 T02360051  RH  031%=      5-min Rain = 0
KRRS 192240Z 17012G20KT 24/05 A2981 RMK A01 T02350052  RH  031%=      5-min Rain = 0
KRRS 192245Z 18012G17KT 23/05 A2981 RMK A01 T02340054  RH  032%=      5-min Rain = 0
KRRS 192250Z 18012G17KT 23/06 A2981 RMK A01 T02330055  RH  032%=      5-min Rain = 0
KRRS 192255Z 18013G19KT 23/05 A2981 RMK A01 T02320054  RH  032%=      5-min Rain = 0
KRRS 192300Z 17011G16KT 23/05 A2981 RMK A01 T02290054  RH  033%=      5-min Rain = 0
KRRS 192305Z 17010G15KT 23/05 A2981 RMK A01 T02250054  RH  034%=      5-min Rain = 0
KRRS 192310Z 17009KT 22/06 A2981 RMK A01 T02230055  RH  034%=      5-min Rain = 0
KRRS 192315Z 16007KT 22/06 A2981 RMK A01 T02210055  RH  035%=      5-min Rain = 0
KRRS 192320Z 16007KT 22/06 A2981 RMK A01 T02160055  RH  036%=      5-min Rain = 0
KRRS 192325Z 16007KT 21/06 A2981 RMK A01 T02130056  RH  037%=      5-min Rain = 0
KRRS 192330Z 17007KT 21/06 A2981 RMK A01 T02080056  RH  038%=      5-min Rain = 0
KRRS 192335Z 17007KT 20/06 A298 RMK A01 T02040056  RH  039%=      5-min Rain = 0
KRRS 192340Z 16006KT 20/06 A298 RMK A01 T01990057  RH  040%=      5-min Rain = 0
KRRS 192345Z 16006KT 19/06 A298 RMK A01 T01940056  RH  041%=      5-min Rain = 0
KRRS 192350Z 16006KT 19/06 A2981 RMK A01 T01900057  RH  043%=      5-min Rain = 0
KRRS 192355Z 16007KT 19/06 A2981 RMK A01 T01880057  RH  043%=      5-min Rain = 0
KRRS 200000Z 17007KT 19/06 A2981 RMK A01 T01850057  RH  044%=      5-min Rain = 0
KRRS 200005Z 17007KT 18/06 A2981 RMK A01 T01830057  RH  044%=      5-min Rain = 0
KRRS 200010Z 17006KT 18/06 A2981 RMK A01 T01790056  RH  045%=      5-min Rain = 0
KRRS 200015Z 17006KT 17/06 A2981 RMK A01 T01700055  RH  048%=      5-min Rain = 0
KRRS 200020Z 18007KT 16/06 A298 RMK A01 T01630056  RH  050%=      5-min Rain = 0
KRRS 200025Z 18007KT 16/06 A2981 RMK A01 T01590056  RH  052%=      5-min Rain = 0
KRRS 200030Z 18007KT 16/06 A2981 RMK A01 T01560056  RH  052%=      5-min Rain = 0
KRRS 200035Z 18008KT 15/06 A2981 RMK A01 T01530056  RH  053%=      5-min Rain = 0
KRRS 200040Z 18007KT 15/06 A2981 RMK A01 T01490056  RH  055%=      5-min Rain = 0
KRRS 200045Z 18007KT 15/06 A298 RMK A01 T01470055  RH  055%=      5-min Rain = 0
KRRS 200050Z 19008KT 15/06 A2981 RMK A01 T01470055  RH  055%=      5-min Rain = 0
KRRS 200055Z 19008KT 14/05 A2981 RMK A01 T01440054  RH  056%=      5-min Rain = 0
KRRS 200100Z 18007KT 14/05 A2981 RMK A01 T01420053  RH  056%=      5-min Rain = 0
KRRS 200105Z 18008KT 14/05 A2981 RMK A01 T01430053  RH  056%=      5-min Rain = 0
KRRS 200110Z 18008KT 14/05 A2981 RMK A01 T01420052  RH  056%=      5-min Rain = 0
KRRS 200115Z 19008KT 14/05 A2981 RMK A01 T01410051  RH  056%=      5-min Rain = 0
KRRS 200120Z 19009KT 14/05 A2981 RMK A01 T01400050  RH  056%=      5-min Rain = 0
KRRS 200125Z 19009KT 14/05 A2981 RMK A01 T01390050  RH  056%=      5-min Rain = 0
KRRS 200130Z 19008KT 14/05 A298 RMK A01 T01390050  RH  056%=      5-min Rain = 0
KRRS 200135Z 19009KT 14/05 A2981 RMK A01 T01390051  RH  056%=      5-min Rain = 0
KRRS 200140Z 19008KT 14/05 A2981 RMK A01 T01380050  RH  057%=      5-min Rain = 0
KRRS 200145Z 18008KT 14/05 A2981 RMK A01 T01350050  RH  058%=      5-min Rain = 0
KRRS 200150Z 19008KT 13/05 A2981 RMK A01 T01340050  RH  058%=      5-min Rain = 0
KRRS 200155Z 19008KT 13/05 A2981 RMK A01 T01340050  RH  058%=      5-min Rain = 0
KRRS 200200Z 19008KT 13/05 A2981 RMK A01 T01300049  RH  059%=      5-min Rain = 0
KRRS 200205Z 19009KT 13/05 A2981 RMK A01 T01300051  RH  060%=      5-min Rain = 0
KRRS 200210Z 19009KT 13/05 A2981 RMK A01 T01300052  RH  060%=      5-min Rain = 0
KRRS 200215Z 19009KT 13/05 A2981 RMK A01 T01290053  RH  061%=      5-min Rain = 0
KRRS 200220Z 19008KT 13/06 A2981 RMK A01 T01290055  RH  062%=      5-min Rain = 0
KRRS 200225Z 19010KT 13/06 A2981 RMK A01 T01340059  RH  062%=      5-min Rain = 0
KRRS 200230Z 19010KT 14/06 A2981 RMK A01 T01410061  RH  060%=      5-min Rain = 0
KRRS 200235Z 18009KT 14/06 A2981 RMK A01 T01440062  RH  059%=      5-min Rain = 0
KRRS 200240Z 18010KT 15/06 A2981 RMK A01 T01470064  RH  059%=      5-min Rain = 0
KRRS 200245Z 18009KT 15/06 A2981 RMK A01 T01460064  RH  059%=      5-min Rain = 0
KRRS 200250Z 18008KT 14/06 A2981 RMK A01 T01430064  RH  060%=      5-min Rain = 0
KRRS 200255Z 18007KT 14/06 A2981 RMK A01 T01380063  RH  062%=      5-min Rain = 0
KRRS 200300Z 18007KT 13/06 A2981 RMK A01 T01340062  RH  063%=      5-min Rain = 0
KRRS 200305Z 18008KT 13/06 A2981 RMK A01 T01310063  RH  065%=      5-min Rain = 0
KRRS 200310Z 18007KT 13/06 A2981 RMK A01 T01290063  RH  066%=      5-min Rain = 0
KRRS 200315Z 18006KT 13/06 A2981 RMK A01 T01250062  RH  067%=      5-min Rain = 0
KRRS 200320Z 18007KT 12/06 A2981 RMK A01 T01230062  RH  068%=      5-min Rain = 0
KRRS 200325Z 19008KT 13/07 A2981 RMK A01 T01250065  RH  068%=      5-min Rain = 0
KRRS 200330Z 18011KT 14/07 A2981 RMK A01 T01390070  RH  065%=      5-min Rain = 0
KRRS 200335Z 19011KT 15/07 A2981 RMK A01 T01490071  RH  061%=      5-min Rain = 0
KRRS 200340Z 19012KT 15/07 A2981 RMK A01 T01530070  RH  059%=      5-min Rain = 0
KRRS 200345Z 19012KT 15/07 A2981 RMK A01 T01540070  RH  059%=      5-min Rain = 0
KRRS 200350Z 19012KT 16/07 A2981 RMK A01 T01560069  RH  058%=      5-min Rain = 0
KRRS 200355Z 19012KT 16/07 A2981 RMK A01 T01580069  RH  057%=      5-min Rain = 0
KRRS 200400Z 19012KT 16/07 A2981 RMK A01 T01600070  RH  056%=      5-min Rain = 0
KRRS 200405Z 19012KT 16/07 A298 RMK A01 T01620070  RH  056%=      5-min Rain = 0
KRRS 200410Z 19012KT 16/07 A298 RMK A01 T01640070  RH  055%=      5-min Rain = 0
KRRS 200415Z 19013KT 17/07 A298 RMK A01 T01670070  RH  054%=      5-min Rain = 0
KRRS 200420Z 19013KT 17/07 A298 RMK A01 T01680070  RH  054%=      5-min Rain = 0
KRRS 200425Z 19013KT 17/07 A298 RMK A01 T01680070  RH  054%=      5-min Rain = 0
KRRS 200430Z 19013KT 17/07 A298 RMK A01 T01690069  RH  053%=      5-min Rain = 0
KRRS 200435Z 19013G18KT 17/07 A298 RMK A01 T01680069  RH  054%=      5-min Rain = 0
KRRS 200440Z 19012KT 17/07 A298 RMK A01 T01650069  RH  054%=      5-min Rain = 0
KRRS 200445Z 19013G18KT 17/07 A298 RMK A01 T01650069  RH  054%=      5-min Rain = 0
KRRS 200450Z 19013G18KT 16/07 A298 RMK A01 T01640069  RH  055%=      5-min Rain = 0
KRRS 200455Z 19014G19KT 16/07 A298 RMK A01 T01630069  RH  055%=      5-min Rain = 0
KRRS 200500Z 19014KT 16/07 A298 RMK A01 T01610070  RH  056%=      5-min Rain = 0
KRRS 200505Z 19013KT 16/07 A298 RMK A01 T01590070  RH  057%=      5-min Rain = 0
KRRS 200510Z 19012KT 16/07 A298 RMK A01 T01570070  RH  058%=      5-min Rain = 0
KRRS 200515Z 19012KT 16/07 A2981 RMK A01 T01550071  RH  059%=      5-min Rain = 0
KRRS 200520Z 18011KT 15/07 A2981 RMK A01 T01530071  RH  059%=      5-min Rain = 0
KRRS 200525Z 18011KT 15/07 A2981 RMK A01 T01530072  RH  060%=      5-min Rain = 0
KRRS 200530Z 18011KT 15/07 A2981 RMK A01 T01520072  RH  060%=      5-min Rain = 0
KRRS 200535Z 18010KT 15/07 A2981 RMK A01 T01510073  RH  061%=      5-min Rain = 0
KRRS 200540Z 18010KT 15/07 A2981 RMK A01 T01510074  RH  062%=      5-min Rain = 0
KRRS 200545Z 19012KT 15/08 A2981 RMK A01 T01530077  RH  062%=      5-min Rain = 0
KRRS 200550Z 20014KT 16/08 A2981 RMK A01 T01590080  RH  061%=      5-min Rain = 0
KRRS 200555Z 20013KT 16/08 A2981 RMK A01 T01630082  RH  061%=      5-min Rain = 0

Page generated in 0.0187 seconds.